Terminal Aerodrome Forecast
Issued by NWS

Home | Current Version | Previous Version | Text Only | Print | Product List | Glossary Off
Versions: 1 2 3 4 5 6 7 8 9 10 11 12 13 14

000
FTUS43 KGRB 110500 RRA
TAFAUW
TAF
KAUW 110541Z 1106/1206 16006KT P6SM SCT050 BKN200
      TEMPO 1106/1108 SCT040 BKN050
     FM111500 18012G19KT P6SM VCSH BKN045 OVC100
     FM112200 17008KT P6SM VCSH SCT040 BKN090=

USA.gov is the U.S. government's official web portal to all federal, state and local government web resources and services.